createdAt,value
2023-01-19T00:00:55.432Z,19.17
2023-01-19T00:03:22.736Z,9.38
2023-01-19T00:05:54.012Z,7.60
2023-01-19T00:08:21.414Z,58.45
2023-01-19T00:10:54.130Z,31.65
2023-01-19T00:13:22.540Z,38.05
2023-01-19T00:15:49.740Z,38.25
2023-01-19T00:18:16.922Z,41.63
2023-01-19T00:20:46.882Z,22.95
2023-01-19T00:23:15.588Z,11.25
2023-01-19T00:25:43.816Z,6.97
2023-01-19T00:28:10.700Z,6.95
2023-01-19T00:30:39.589Z,7.05
2023-01-19T00:33:06.519Z,10.35
2023-01-19T00:35:34.704Z,8.20
2023-01-19T00:38:02.158Z,7.50
2023-01-19T00:40:29.279Z,11.35
2023-01-19T00:42:56.350Z,6.07
2023-01-19T00:45:24.565Z,8.98
2023-01-19T00:47:57.221Z,7.50
2023-01-19T00:50:26.510Z,7.97
2023-01-19T00:52:55.141Z,7.75
2023-01-19T00:55:22.929Z,5.88
2023-01-19T00:57:50.303Z,7.88
2023-01-19T01:00:19.987Z,16.50
2023-01-19T01:02:48.547Z,16.25
2023-01-19T01:05:16.099Z,12.35
2023-01-19T01:07:45.478Z,11.43
2023-01-19T01:10:20.095Z,11.77
2023-01-19T01:12:55.191Z,10.02
2023-01-19T01:15:26.784Z,8.95
2023-01-19T01:17:54.436Z,8.60
2023-01-19T01:20:28.204Z,9.40
2023-01-19T01:22:57.032Z,11.70
2023-01-19T01:25:26.677Z,8.05
2023-01-19T01:27:54.746Z,9.75
2023-01-19T01:30:21.824Z,9.48
2023-01-19T01:32:49.203Z,8.20
2023-01-19T01:35:16.935Z,7.13
2023-01-19T01:37:44.555Z,7.50
2023-01-19T01:40:18.330Z,7.32
2023-01-19T01:42:45.750Z,5.10
2023-01-19T01:45:34.857Z,5.82
2023-01-19T01:48:13.314Z,6.55
2023-01-19T01:51:26.332Z,9.23
2023-01-19T01:54:08.730Z,8.40
2023-01-19T01:56:40.354Z,7.57
2023-01-19T01:59:13.046Z,8.43
2023-01-19T02:04:31.802Z,8.93
2023-01-19T02:07:17.508Z,6.65
2023-01-19T02:10:03.274Z,7.30
2023-01-19T02:12:48.948Z,10.07
2023-01-19T02:15:18.693Z,11.88
2023-01-19T02:17:47.380Z,8.82
2023-01-19T02:20:14.851Z,8.40
2023-01-19T02:22:49.683Z,11.50
2023-01-19T02:25:19.481Z,13.20
2023-01-19T02:27:47.327Z,9.50
2023-01-19T02:30:16.842Z,9.48
2023-01-19T02:32:44.210Z,7.93
2023-01-19T02:35:13.115Z,9.40
2023-01-19T02:37:42.276Z,11.50
2023-01-19T02:40:14.301Z,10.38
2023-01-19T02:42:46.284Z,12.30
2023-01-19T02:45:17.118Z,9.90
2023-01-19T02:47:52.067Z,10.23
2023-01-19T02:50:38.907Z,17.35
2023-01-19T02:53:34.877Z,19.98
2023-01-19T02:56:30.758Z,9.52
2023-01-19T02:59:23.479Z,11.75
2023-01-19T03:02:17.776Z,12.95
2023-01-19T03:04:57.735Z,8.27
2023-01-19T03:07:35.035Z,8.60
2023-01-19T03:10:17.760Z,8.32
2023-01-19T03:12:57.737Z,7.05
2023-01-19T03:15:48.382Z,12.60
2023-01-19T03:18:21.543Z,13.35
2023-01-19T03:20:53.581Z,12.90
2023-01-19T03:23:25.704Z,13.55
2023-01-19T03:25:55.938Z,10.88
2023-01-19T03:28:25.950Z,8.05
2023-01-19T03:31:04.729Z,9.13
2023-01-19T03:33:35.429Z,13.15
2023-01-19T03:36:08.610Z,9.77
2023-01-19T03:38:41.934Z,11.13
2023-01-19T03:41:15.605Z,6.25
2023-01-19T03:43:43.600Z,9.85
2023-01-19T03:46:12.045Z,7.95
2023-01-19T03:48:39.229Z,7.68
2023-01-19T03:51:08.926Z,8.00
2023-01-19T03:53:36.094Z,11.65
2023-01-19T03:56:03.804Z,17.17
2023-01-19T03:58:30.968Z,10.45
2023-01-19T04:00:59.464Z,9.82
2023-01-19T04:03:26.513Z,7.30
2023-01-19T04:05:53.978Z,8.45
2023-01-19T04:08:20.960Z,11.98
2023-01-19T04:10:47.873Z,7.90
2023-01-19T04:13:14.907Z,10.90
2023-01-19T04:15:42.242Z,8.50
2023-01-19T04:18:09.852Z,15.48
2023-01-19T04:20:37.661Z,9.50
2023-01-19T04:23:05.571Z,10.55
2023-01-19T04:25:33.446Z,9.00
2023-01-19T04:28:00.593Z,11.95
2023-01-19T04:30:28.066Z,7.78
2023-01-19T04:32:56.477Z,10.23
2023-01-19T04:35:24.030Z,11.93
2023-01-19T04:37:51.267Z,10.15
2023-01-19T04:40:18.438Z,10.57
2023-01-19T04:42:46.196Z,12.68
2023-01-19T04:45:14.541Z,15.10
2023-01-19T04:47:42.936Z,9.15
2023-01-19T04:50:11.674Z,8.65
2023-01-19T04:52:39.739Z,12.10
2023-01-19T04:55:07.325Z,13.90
2023-01-19T04:57:34.579Z,10.43
2023-01-19T05:00:04.124Z,11.75
2023-01-19T05:02:31.192Z,9.98
2023-01-19T05:04:58.413Z,11.00
2023-01-19T05:07:26.053Z,6.18
2023-01-19T05:09:54.067Z,8.65
2023-01-19T05:12:22.101Z,14.70
2023-01-19T05:14:49.813Z,12.82
2023-01-19T05:17:17.313Z,7.93
2023-01-19T05:19:44.606Z,9.57
2023-01-19T05:22:13.080Z,13.48
2023-01-19T05:24:40.339Z,9.45
2023-01-19T05:27:10.965Z,10.80
2023-01-19T05:29:38.307Z,12.82
2023-01-19T05:32:06.364Z,11.18
2023-01-19T05:34:33.816Z,10.30
2023-01-19T05:37:01.620Z,9.38
2023-01-19T05:39:29.958Z,11.75
2023-01-19T05:41:57.852Z,9.00
2023-01-19T05:44:25.009Z,13.43
2023-01-19T05:46:52.404Z,7.47
2023-01-19T05:49:20.664Z,9.88
2023-01-19T05:51:47.960Z,12.82
2023-01-19T05:54:16.187Z,17.75
2023-01-19T05:56:44.129Z,14.25
2023-01-19T05:59:11.831Z,13.82
2023-01-19T06:01:40.334Z,14.93
2023-01-19T06:04:08.300Z,12.38
2023-01-19T06:06:36.027Z,17.63
2023-01-19T06:09:03.779Z,23.77
2023-01-19T06:11:31.031Z,20.45
2023-01-19T06:13:58.928Z,18.83
2023-01-19T06:16:26.812Z,14.50
2023-01-19T06:18:54.526Z,15.95
2023-01-19T06:21:22.443Z,16.10
2023-01-19T06:23:50.115Z,39.65
2023-01-19T06:26:17.736Z,35.92
2023-01-19T06:28:45.648Z,36.20
2023-01-19T06:31:13.021Z,25.27
2023-01-19T06:33:40.667Z,38.78
2023-01-19T06:36:08.296Z,46.30
2023-01-19T06:38:35.554Z,60.65
2023-01-19T06:41:03.798Z,65.68
2023-01-19T06:43:32.027Z,42.47
2023-01-19T06:46:00.994Z,28.92
2023-01-19T06:48:28.877Z,58.85
2023-01-19T06:50:58.755Z,71.22
2023-01-19T06:53:31.667Z,36.55
2023-01-19T06:56:04.500Z,42.55
2023-01-19T06:58:32.591Z,29.38
2023-01-19T07:03:52.817Z,22.40
2023-01-19T07:06:20.242Z,21.42
2023-01-19T07:08:47.848Z,27.33
2023-01-19T07:11:25.343Z,21.80
2023-01-19T07:13:59.729Z,22.15
2023-01-19T07:16:27.435Z,23.15
2023-01-19T07:18:55.181Z,30.98
2023-01-19T07:21:23.520Z,35.17
2023-01-19T07:23:52.816Z,31.52
2023-01-19T07:26:21.941Z,31.30
2023-01-19T07:28:50.536Z,31.25
2023-01-19T07:31:19.142Z,21.02
2023-01-19T07:33:47.259Z,16.25
2023-01-19T07:36:15.965Z,11.45
2023-01-19T07:38:43.804Z,10.02
2023-01-19T07:41:11.951Z,11.18
2023-01-19T07:43:39.159Z,7.30
2023-01-19T07:46:08.569Z,10.63
2023-01-19T07:48:36.130Z,10.65
2023-01-19T07:51:05.976Z,9.60
2023-01-19T07:53:33.732Z,10.07
2023-01-19T07:56:01.273Z,12.10
2023-01-19T07:58:28.669Z,12.45
2023-01-19T08:00:56.205Z,11.38
2023-01-19T08:03:24.076Z,11.20
2023-01-19T08:05:54.469Z,8.07
2023-01-19T08:08:21.791Z,9.57
2023-01-19T08:10:52.966Z,9.65
2023-01-19T08:13:20.510Z,10.32
2023-01-19T08:15:52.110Z,11.00
2023-01-19T08:18:20.079Z,9.38
2023-01-19T08:20:47.752Z,7.68
2023-01-19T08:23:14.897Z,8.23
2023-01-19T08:25:45.445Z,8.82
2023-01-19T08:28:15.498Z,7.03
2023-01-19T08:30:45.967Z,4.88
2023-01-19T08:33:13.991Z,9.73
2023-01-19T08:35:44.123Z,7.05
2023-01-19T08:38:11.519Z,10.00
2023-01-19T08:40:40.979Z,9.43
2023-01-19T08:43:14.065Z,6.03
2023-01-19T08:45:50.462Z,9.02
2023-01-19T08:48:22.247Z,10.63
2023-01-19T08:50:50.911Z,13.32
2023-01-19T08:53:20.634Z,7.85
2023-01-19T08:55:47.916Z,8.52
2023-01-19T08:58:15.324Z,12.05
2023-01-19T09:00:43.090Z,8.95
2023-01-19T09:03:13.791Z,9.35
2023-01-19T09:05:41.103Z,7.00
2023-01-19T09:08:11.416Z,12.40
2023-01-19T09:10:39.814Z,7.90
2023-01-19T09:13:13.078Z,5.32
2023-01-19T09:15:41.262Z,6.20
2023-01-19T09:18:13.159Z,5.05
2023-01-19T09:20:45.772Z,4.87
2023-01-19T09:25:45.352Z,4.57
2023-01-19T09:28:15.169Z,5.03
2023-01-19T09:30:46.263Z,2.47
2023-01-19T09:35:48.608Z,3.33
2023-01-19T09:38:18.749Z,7.57
2023-01-19T09:40:52.849Z,8.93
2023-01-19T09:43:42.176Z,5.80
2023-01-19T09:46:21.032Z,5.35
2023-01-19T09:49:02.506Z,7.63
2023-01-19T09:51:41.166Z,4.70
2023-01-19T09:54:19.375Z,4.32
2023-01-19T09:56:52.624Z,5.53
2023-01-19T09:59:21.517Z,7.25
2023-01-19T10:02:08.329Z,4.32
2023-01-19T10:04:58.842Z,4.15
2023-01-19T10:07:36.613Z,9.27
2023-01-19T10:10:36.305Z,5.00
2023-01-19T10:13:22.968Z,6.47
2023-01-19T10:16:09.305Z,3.58
2023-01-19T10:18:48.322Z,3.17
2023-01-19T10:21:21.367Z,6.72
2023-01-19T10:24:15.651Z,6.90
2023-01-19T10:26:49.029Z,6.63
2023-01-19T10:29:29.471Z,4.75
2023-01-19T10:32:29.388Z,7.00
2023-01-19T10:35:00.253Z,3.58
2023-01-19T10:37:38.646Z,5.88
2023-01-19T10:40:12.822Z,4.88
2023-01-19T10:42:42.291Z,4.53
2023-01-19T10:45:22.804Z,6.63
2023-01-19T10:47:53.429Z,6.25
2023-01-19T10:50:34.914Z,6.15
2023-01-19T10:53:09.169Z,6.75
2023-01-19T10:55:41.484Z,4.68
2023-01-19T10:58:30.071Z,3.60
2023-01-19T11:01:17.343Z,5.55
2023-01-19T11:03:46.838Z,9.70
2023-01-19T11:06:19.551Z,6.20
2023-01-19T11:08:51.517Z,4.57
2023-01-19T11:11:25.037Z,9.93
2023-01-19T11:14:12.251Z,6.07
2023-01-19T11:16:41.237Z,12.00
2023-01-19T11:19:30.506Z,4.88
2023-01-19T11:22:23.195Z,4.10
2023-01-19T11:24:52.965Z,6.03
2023-01-19T11:27:22.772Z,8.63
2023-01-19T11:30:02.870Z,7.13
2023-01-19T11:32:33.926Z,7.65
2023-01-19T11:35:28.174Z,6.82
2023-01-19T11:38:18.533Z,7.70
2023-01-19T11:41:22.752Z,5.80
2023-01-19T11:43:55.219Z,8.32
2023-01-19T11:46:27.106Z,9.20
2023-01-19T11:49:06.515Z,11.10
2023-01-19T11:51:51.816Z,12.15
2023-01-19T11:54:29.419Z,6.72
2023-01-19T11:57:09.913Z,11.07
2023-01-19T11:59:38.680Z,9.23
2023-01-19T12:02:27.328Z,12.57
2023-01-19T12:05:08.783Z,12.20
2023-01-19T12:07:37.588Z,6.60
2023-01-19T12:10:30.506Z,7.55
2023-01-19T12:13:00.611Z,5.15
2023-01-19T12:15:42.924Z,11.90
2023-01-19T12:18:27.344Z,7.85
2023-01-19T12:20:59.377Z,8.77
2023-01-19T12:23:39.975Z,10.52
2023-01-19T12:26:30.074Z,8.88
2023-01-19T12:29:05.036Z,8.50
2023-01-19T12:31:34.682Z,10.02
2023-01-19T12:34:28.857Z,13.50
2023-01-19T12:37:05.341Z,10.00
2023-01-19T12:39:36.823Z,14.48
2023-01-19T12:42:19.880Z,12.73
2023-01-19T12:44:50.432Z,10.57
2023-01-19T12:47:24.700Z,9.98
2023-01-19T12:50:06.621Z,9.60
2023-01-19T12:52:37.062Z,12.07
2023-01-19T12:55:14.733Z,9.55
2023-01-19T12:58:21.830Z,9.35
2023-01-19T13:00:52.864Z,7.28
2023-01-19T13:03:20.808Z,9.43
2023-01-19T13:05:58.778Z,11.27
2023-01-19T13:08:30.775Z,14.00
2023-01-19T13:11:06.493Z,11.55
2023-01-19T13:13:37.417Z,10.40
2023-01-19T13:16:21.382Z,11.00
2023-01-19T13:19:28.803Z,14.13
2023-01-19T13:21:56.603Z,12.65
2023-01-19T13:24:26.309Z,14.35
2023-01-19T13:27:04.914Z,6.60
2023-01-19T13:29:44.145Z,11.75
2023-01-19T13:32:20.001Z,13.60
2023-01-19T13:34:59.601Z,16.33
2023-01-19T13:37:39.261Z,9.27
2023-01-19T13:40:08.276Z,9.18
2023-01-19T13:42:42.325Z,20.02
2023-01-19T13:45:13.351Z,13.18
2023-01-19T13:47:46.245Z,5.78
2023-01-19T13:50:22.600Z,8.73
2023-01-19T13:52:54.763Z,14.98
2023-01-19T13:55:25.242Z,12.13
2023-01-19T13:57:54.620Z,10.38
2023-01-19T14:00:26.238Z,14.63
2023-01-19T14:03:10.543Z,10.23
2023-01-19T14:05:41.414Z,12.73
2023-01-19T14:08:11.757Z,11.95
2023-01-19T14:10:48.282Z,12.40
2023-01-19T14:13:41.970Z,7.95
2023-01-19T14:16:17.929Z,6.78
2023-01-19T14:18:45.626Z,9.55
2023-01-19T14:21:16.221Z,10.95
2023-01-19T14:24:08.361Z,8.60
2023-01-19T14:26:45.352Z,12.18
2023-01-19T14:29:33.797Z,13.65
2023-01-19T14:32:01.133Z,12.90
2023-01-19T14:34:36.967Z,17.90
2023-01-19T14:37:15.500Z,10.38
2023-01-19T14:39:49.821Z,16.13
2023-01-19T14:42:22.640Z,17.15
2023-01-19T14:47:36.143Z,16.10
2023-01-19T14:50:18.526Z,18.83
2023-01-19T14:52:54.839Z,16.88
2023-01-19T14:55:33.864Z,17.38
2023-01-19T14:58:01.454Z,15.75
2023-01-19T15:00:28.814Z,24.30
2023-01-19T15:02:56.410Z,15.73
2023-01-19T15:05:23.477Z,16.45
2023-01-19T15:07:52.251Z,12.80
2023-01-19T15:10:24.199Z,14.55
2023-01-19T15:12:53.291Z,12.80
2023-01-19T15:15:28.533Z,9.77
2023-01-19T15:17:56.319Z,16.17
2023-01-19T15:20:24.085Z,14.45
2023-01-19T15:22:51.176Z,15.38
2023-01-19T15:25:21.359Z,12.45
2023-01-19T15:27:49.216Z,19.10
2023-01-19T15:30:27.980Z,14.68
2023-01-19T15:32:55.086Z,17.25
2023-01-19T15:35:23.741Z,14.10
2023-01-19T15:37:51.350Z,21.65
2023-01-19T15:40:20.086Z,22.70
2023-01-19T15:42:47.266Z,17.88
2023-01-19T15:45:33.405Z,12.77
2023-01-19T15:48:03.051Z,12.68
2023-01-19T15:50:31.423Z,20.58
2023-01-19T15:52:59.008Z,19.38
2023-01-19T15:55:26.299Z,14.23
2023-01-19T15:57:53.361Z,16.65
2023-01-19T16:00:20.732Z,16.00
2023-01-19T16:02:50.382Z,20.95
2023-01-19T16:05:17.713Z,14.10
2023-01-19T16:07:44.788Z,16.40
2023-01-19T16:10:13.219Z,19.85
2023-01-19T16:12:40.091Z,19.50
2023-01-19T16:15:08.057Z,19.33
2023-01-19T16:17:34.965Z,17.13
2023-01-19T16:20:02.366Z,19.70
2023-01-19T16:22:29.443Z,12.77
2023-01-19T16:24:56.667Z,19.30
2023-01-19T16:27:24.435Z,17.20
2023-01-19T16:29:51.706Z,20.40
2023-01-19T16:32:19.401Z,20.63
2023-01-19T16:34:46.818Z,12.93
2023-01-19T16:37:13.665Z,17.42
2023-01-19T16:39:40.987Z,18.38
2023-01-19T16:42:07.873Z,13.13
2023-01-19T16:44:35.006Z,16.33
2023-01-19T16:47:02.302Z,20.67
2023-01-19T16:49:30.431Z,10.30
2023-01-19T16:51:58.516Z,15.25
2023-01-19T16:54:26.913Z,17.52
2023-01-19T16:56:55.724Z,14.52
2023-01-19T16:59:23.045Z,17.13
2023-01-19T17:01:51.211Z,18.13
2023-01-19T17:04:21.065Z,13.88
2023-01-19T17:06:48.287Z,21.55
2023-01-19T17:09:15.633Z,10.55
2023-01-19T17:11:42.972Z,15.55
2023-01-19T17:14:15.639Z,11.65
2023-01-19T17:19:14.782Z,12.48
2023-01-19T17:21:44.424Z,13.30
2023-01-19T17:24:11.871Z,11.40
2023-01-19T17:26:38.920Z,16.27
2023-01-19T17:29:09.112Z,14.20
2023-01-19T17:31:37.327Z,14.00
2023-01-19T17:34:05.690Z,17.17
2023-01-19T17:36:34.031Z,13.02
2023-01-19T17:39:06.694Z,9.95
2023-01-19T17:44:04.077Z,14.60
2023-01-19T17:46:32.202Z,10.65
2023-01-19T17:49:01.920Z,8.90
2023-01-19T17:51:31.270Z,9.10
2023-01-19T17:53:59.062Z,10.25
2023-01-19T17:56:30.118Z,8.85
2023-01-19T17:58:59.374Z,10.40
2023-01-19T18:01:29.368Z,13.05
2023-01-19T18:03:57.707Z,15.23
2023-01-19T18:06:24.976Z,14.30
2023-01-19T18:08:53.036Z,12.77
2023-01-19T18:11:21.819Z,11.35
2023-01-19T18:13:50.641Z,11.90
2023-01-19T18:16:24.546Z,11.50
2023-01-19T18:18:54.117Z,14.15
2023-01-19T18:21:22.296Z,12.07
2023-01-19T18:23:51.179Z,11.13
2023-01-19T18:26:22.723Z,16.33
2023-01-19T18:28:50.404Z,18.10
2023-01-19T18:31:19.194Z,16.67
2023-01-19T18:33:47.646Z,11.50
2023-01-19T18:36:15.434Z,11.13
2023-01-19T18:38:43.083Z,17.65
2023-01-19T18:41:16.072Z,8.20
2023-01-19T18:43:43.875Z,13.77
2023-01-19T18:46:11.692Z,17.02
2023-01-19T18:48:39.605Z,14.63
2023-01-19T18:51:11.807Z,7.35
2023-01-19T18:53:39.438Z,13.82
2023-01-19T18:56:07.118Z,15.50
2023-01-19T18:58:37.842Z,13.45
2023-01-19T19:01:17.109Z,9.77
2023-01-19T19:03:44.243Z,12.68
2023-01-19T19:06:11.956Z,13.13
2023-01-19T19:08:39.118Z,8.60
2023-01-19T19:11:12.101Z,8.68
2023-01-19T19:13:41.077Z,10.00
2023-01-19T19:16:10.719Z,16.55
2023-01-19T19:18:39.572Z,8.38
2023-01-19T19:21:11.843Z,15.73
2023-01-19T19:23:39.270Z,10.23
2023-01-19T19:26:10.021Z,18.55
2023-01-19T19:28:38.576Z,12.98
2023-01-19T19:31:10.431Z,11.80
2023-01-19T19:33:38.898Z,18.03
2023-01-19T19:36:07.975Z,11.48
2023-01-19T19:38:37.138Z,9.85
2023-01-19T19:41:08.937Z,10.20
2023-01-19T19:43:36.689Z,9.77
2023-01-19T19:46:14.629Z,7.78
2023-01-19T19:48:41.855Z,13.88
2023-01-19T19:51:19.213Z,13.25
2023-01-19T19:53:48.923Z,11.30
2023-01-19T19:56:19.877Z,10.02
2023-01-19T19:58:47.697Z,11.40
2023-01-19T20:01:16.988Z,22.90
2023-01-19T20:03:44.533Z,11.02
2023-01-19T20:06:20.447Z,9.30
2023-01-19T20:08:48.675Z,13.15
2023-01-19T20:11:21.978Z,7.90
2023-01-19T20:13:49.604Z,14.88
2023-01-19T20:16:18.621Z,9.32
2023-01-19T20:18:51.615Z,13.63
2023-01-19T20:21:19.974Z,12.18
2023-01-19T20:23:48.546Z,14.63
2023-01-19T20:26:18.815Z,15.77
2023-01-19T20:28:46.438Z,10.65
2023-01-19T20:31:15.512Z,10.55
2023-01-19T20:33:43.616Z,13.98
2023-01-19T20:36:12.997Z,10.77
2023-01-19T20:38:58.665Z,11.23
2023-01-19T20:41:26.760Z,21.67
2023-01-19T20:43:54.213Z,11.75
2023-01-19T20:46:21.208Z,14.15
2023-01-19T20:48:53.039Z,15.10
2023-01-19T20:51:20.761Z,11.80
2023-01-19T20:53:48.019Z,11.90
2023-01-19T20:56:15.586Z,8.10
2023-01-19T20:58:42.975Z,9.73
2023-01-19T21:01:12.969Z,16.88
2023-01-19T21:03:40.204Z,9.32
2023-01-19T21:06:08.268Z,15.32
2023-01-19T21:08:36.021Z,15.60
2023-01-19T21:11:03.649Z,12.88
2023-01-19T21:13:31.106Z,19.52
2023-01-19T21:15:58.627Z,15.63
2023-01-19T21:18:28.042Z,9.77
2023-01-19T21:20:57.697Z,11.23
2023-01-19T21:23:26.050Z,12.43
2023-01-19T21:25:55.371Z,17.05
2023-01-19T21:28:23.187Z,12.80
2023-01-19T21:30:51.627Z,8.20
2023-01-19T21:33:19.366Z,9.85
2023-01-19T21:35:54.658Z,13.60
2023-01-19T21:38:23.540Z,23.30
2023-01-19T21:40:50.783Z,14.43
2023-01-19T21:43:20.236Z,7.63
2023-01-19T21:45:48.726Z,13.85
2023-01-19T21:48:17.219Z,11.10
2023-01-19T21:50:44.422Z,12.85
2023-01-19T21:53:12.139Z,11.32
2023-01-19T21:55:45.491Z,14.15
2023-01-19T21:58:12.585Z,19.15
2023-01-19T22:00:39.443Z,11.82
2023-01-19T22:03:06.436Z,12.98
2023-01-19T22:05:37.183Z,14.23
2023-01-19T22:08:06.497Z,15.70
2023-01-19T22:10:37.288Z,13.30
2023-01-19T22:13:06.728Z,14.98
2023-01-19T22:15:33.877Z,12.10
2023-01-19T22:18:00.847Z,13.52
2023-01-19T22:20:28.102Z,10.70
2023-01-19T22:22:56.560Z,14.57
2023-01-19T22:25:27.938Z,17.42
2023-01-19T22:27:56.168Z,16.45
2023-01-19T22:30:23.175Z,14.32
2023-01-19T22:32:50.570Z,15.77
2023-01-19T22:35:17.781Z,13.23
2023-01-19T22:37:44.750Z,21.65
2023-01-19T22:40:12.344Z,15.63
2023-01-19T22:42:39.447Z,12.60
2023-01-19T22:45:07.187Z,12.68
2023-01-19T22:47:34.242Z,14.70
2023-01-19T22:50:01.553Z,19.67
2023-01-19T22:52:28.568Z,9.27
2023-01-19T22:54:58.406Z,12.52
2023-01-19T22:57:25.660Z,7.93
2023-01-19T22:59:52.542Z,16.20
2023-01-19T23:02:20.876Z,9.60
2023-01-19T23:04:48.355Z,16.05
2023-01-19T23:07:15.216Z,13.00
2023-01-19T23:09:42.091Z,9.75
2023-01-19T23:12:09.440Z,14.30
2023-01-19T23:14:36.532Z,13.98
2023-01-19T23:17:03.537Z,17.15
2023-01-19T23:19:30.532Z,15.38
2023-01-19T23:21:57.640Z,21.60
2023-01-19T23:24:24.538Z,16.65
2023-01-19T23:26:51.970Z,15.80
2023-01-19T23:29:19.981Z,17.35
2023-01-19T23:31:49.528Z,14.00
2023-01-19T23:34:17.363Z,16.13
2023-01-19T23:36:44.675Z,7.80
2023-01-19T23:39:20.156Z,13.55
2023-01-19T23:41:47.595Z,17.92
2023-01-19T23:44:15.469Z,13.32
2023-01-19T23:46:44.069Z,17.88
2023-01-19T23:49:12.068Z,12.82
2023-01-19T23:51:40.005Z,17.35
2023-01-19T23:54:07.002Z,16.77
2023-01-19T23:56:37.425Z,14.63
2023-01-19T23:59:12.433Z,18.17
